createdAt,value
2018-12-31T00:02:19.188Z,4.40
2018-12-31T00:04:45.968Z,4.40
2018-12-31T00:07:12.415Z,4.40
2018-12-31T00:09:39.099Z,4.40
2018-12-31T00:12:05.547Z,4.40
2018-12-31T00:14:32.265Z,4.40
2018-12-31T00:16:59.051Z,4.40
2018-12-31T00:19:25.503Z,4.40
2018-12-31T00:21:52.285Z,4.30
2018-12-31T00:24:18.992Z,4.30
2018-12-31T00:26:45.516Z,4.30
2018-12-31T00:29:12.448Z,4.30
2018-12-31T00:31:38.901Z,4.20
2018-12-31T00:34:05.599Z,4.20
2018-12-31T00:36:32.299Z,4.20
2018-12-31T00:38:59.104Z,4.20
2018-12-31T00:41:25.556Z,4.20
2018-12-31T00:43:52.024Z,4.30
2018-12-31T00:46:19.188Z,4.30
2018-12-31T00:48:45.637Z,4.30
2018-12-31T00:51:12.323Z,4.30
2018-12-31T00:53:38.773Z,4.20
2018-12-31T00:56:05.452Z,4.20
2018-12-31T00:58:32.396Z,4.20
2018-12-31T01:00:59.085Z,4.20
2018-12-31T01:03:25.535Z,4.20
2018-12-31T01:05:52.476Z,4.20
2018-12-31T01:08:19.508Z,4.30
2018-12-31T01:10:46.298Z,4.30
2018-12-31T01:13:13.220Z,4.30
2018-12-31T01:15:39.907Z,4.30
2018-12-31T01:18:06.812Z,4.30
2018-12-31T01:20:33.515Z,4.30
2018-12-31T01:23:00.485Z,4.20
2018-12-31T01:25:26.969Z,4.20
2018-12-31T01:27:53.684Z,4.10
2018-12-31T01:30:20.280Z,4.10
2018-12-31T01:32:46.915Z,4.00
2018-12-31T01:35:13.623Z,3.90
2018-12-31T01:37:40.316Z,4.00
2018-12-31T01:40:07.007Z,4.00
2018-12-31T01:42:33.459Z,3.90
2018-12-31T01:45:00.167Z,4.00
2018-12-31T01:47:26.721Z,4.00
2018-12-31T01:49:53.427Z,4.00
2018-12-31T01:52:20.129Z,4.00
2018-12-31T01:54:46.841Z,4.00
2018-12-31T01:57:13.784Z,4.00
2018-12-31T01:59:40.720Z,4.00
2018-12-31T02:02:07.639Z,4.00
2018-12-31T02:04:35.368Z,4.00
2018-12-31T02:07:02.969Z,4.00
2018-12-31T02:09:29.980Z,4.00
2018-12-31T02:11:56.461Z,4.00
2018-12-31T02:14:23.168Z,4.00
2018-12-31T02:16:50.228Z,4.10
2018-12-31T02:19:16.704Z,4.10
2018-12-31T02:21:43.851Z,4.10
2018-12-31T02:24:10.809Z,4.10
2018-12-31T02:26:37.515Z,4.10
2018-12-31T02:29:03.994Z,4.10
2018-12-31T02:31:30.895Z,4.20
2018-12-31T02:33:57.597Z,4.20
2018-12-31T02:36:24.505Z,4.20
2018-12-31T02:38:51.434Z,4.20
2018-12-31T02:41:18.113Z,4.30
2018-12-31T02:43:45.092Z,4.30
2018-12-31T02:46:11.539Z,4.20
2018-12-31T02:48:38.250Z,4.20
2018-12-31T02:51:04.944Z,4.20
2018-12-31T02:53:31.672Z,4.10
2018-12-31T02:55:58.456Z,4.20
2018-12-31T02:58:25.403Z,4.20
2018-12-31T03:00:52.358Z,4.20
2018-12-31T03:03:19.286Z,4.20
2018-12-31T03:05:45.860Z,4.20
2018-12-31T03:08:12.309Z,4.20
2018-12-31T03:10:39.012Z,4.20
2018-12-31T03:13:06.210Z,4.30
2018-12-31T03:15:32.916Z,4.20
2018-12-31T03:17:59.463Z,4.20
2018-12-31T03:20:25.953Z,4.20
2018-12-31T03:22:52.533Z,4.10
2018-12-31T03:25:19.115Z,4.20
2018-12-31T03:27:45.791Z,4.10
2018-12-31T03:30:12.269Z,4.10
2018-12-31T03:32:38.969Z,4.10
2018-12-31T03:35:05.448Z,4.10
2018-12-31T03:37:32.121Z,4.10
2018-12-31T03:39:58.852Z,4.10
2018-12-31T03:42:25.532Z,4.10
2018-12-31T03:44:52.244Z,4.10
2018-12-31T03:47:18.915Z,4.10
2018-12-31T03:49:45.628Z,4.10
2018-12-31T03:52:12.080Z,4.10
2018-12-31T03:54:38.808Z,4.10
2018-12-31T03:57:05.488Z,4.20
2018-12-31T03:59:32.431Z,4.20
2018-12-31T04:01:58.884Z,4.20
2018-12-31T04:04:25.359Z,4.30
2018-12-31T04:06:52.040Z,4.30
2018-12-31T04:09:20.088Z,4.30
2018-12-31T04:11:46.567Z,4.40
2018-12-31T04:14:13.240Z,4.40
2018-12-31T04:16:39.716Z,4.50
2018-12-31T04:19:06.684Z,4.50
2018-12-31T04:21:33.819Z,4.60
2018-12-31T04:24:00.981Z,4.50
2018-12-31T04:26:27.463Z,4.50
2018-12-31T04:28:54.385Z,4.60
2018-12-31T04:31:20.868Z,4.60
2018-12-31T04:33:47.597Z,4.60
2018-12-31T04:36:14.380Z,4.60
2018-12-31T04:38:41.081Z,4.60
2018-12-31T04:41:07.655Z,4.60
2018-12-31T04:43:34.332Z,4.60
2018-12-31T04:46:01.062Z,4.60
2018-12-31T04:48:27.756Z,4.60
2018-12-31T04:50:54.242Z,4.60
2018-12-31T04:53:21.148Z,4.60
2018-12-31T04:55:47.851Z,4.60
2018-12-31T04:58:22.744Z,4.60
2018-12-31T05:00:43.391Z,4.60
2018-12-31T05:03:10.324Z,4.70
2018-12-31T05:05:37.030Z,4.60
2018-12-31T05:08:03.956Z,4.70
2018-12-31T05:10:30.670Z,4.70
2018-12-31T05:12:57.348Z,4.70
2018-12-31T05:15:24.093Z,4.70
2018-12-31T05:17:50.996Z,4.70
2018-12-31T05:20:17.704Z,4.70
2018-12-31T05:22:44.412Z,4.70
2018-12-31T05:25:10.897Z,4.70
2018-12-31T05:27:37.348Z,4.70
2018-12-31T05:30:04.111Z,4.70
2018-12-31T05:32:30.817Z,4.70
2018-12-31T05:34:57.270Z,4.70
2018-12-31T05:37:23.962Z,4.80
2018-12-31T05:39:50.666Z,4.80
2018-12-31T05:42:17.145Z,4.80
2018-12-31T05:44:43.587Z,4.80
2018-12-31T05:47:10.304Z,4.80
2018-12-31T05:49:37.232Z,4.80
2018-12-31T05:52:03.724Z,4.80
2018-12-31T05:54:30.164Z,4.80
2018-12-31T05:56:56.930Z,4.80
2018-12-31T05:59:23.371Z,4.80
2018-12-31T06:01:50.307Z,4.80
2018-12-31T06:04:16.756Z,4.80
2018-12-31T06:06:43.711Z,4.80
2018-12-31T06:09:10.624Z,4.80
2018-12-31T06:11:37.348Z,4.80
2018-12-31T06:14:04.276Z,4.80
2018-12-31T06:16:30.984Z,4.80
2018-12-31T06:18:57.687Z,4.80
2018-12-31T06:21:24.660Z,4.80
2018-12-31T06:23:51.360Z,4.80
2018-12-31T06:26:18.316Z,4.80
2018-12-31T06:28:45.483Z,4.80
2018-12-31T06:31:11.968Z,4.70
2018-12-31T06:33:38.679Z,4.70
2018-12-31T06:36:05.155Z,4.70
2018-12-31T06:38:31.636Z,4.70
2018-12-31T06:40:58.340Z,4.80
2018-12-31T06:43:24.815Z,4.80
2018-12-31T06:45:51.263Z,4.70
2018-12-31T06:48:17.739Z,4.80
2018-12-31T06:50:44.669Z,4.80
2018-12-31T06:53:11.603Z,4.80
2018-12-31T06:55:38.282Z,4.80
2018-12-31T06:58:04.761Z,4.80
2018-12-31T07:00:31.237Z,4.80
2018-12-31T07:02:57.940Z,4.70
2018-12-31T07:05:24.860Z,4.80
2018-12-31T07:07:51.339Z,4.80
2018-12-31T07:10:18.368Z,4.80
2018-12-31T07:12:44.843Z,4.80
2018-12-31T07:15:11.296Z,4.80
2018-12-31T07:17:38.249Z,4.80
2018-12-31T07:20:05.052Z,4.80
2018-12-31T07:22:31.529Z,4.80
2018-12-31T07:24:58.215Z,4.80
2018-12-31T07:27:24.923Z,4.80
2018-12-31T07:29:51.607Z,4.90
2018-12-31T07:32:18.568Z,4.90
2018-12-31T07:34:45.108Z,4.90
2018-12-31T07:37:11.617Z,4.90
2018-12-31T07:39:38.291Z,5.00
2018-12-31T07:42:05.020Z,5.00
2018-12-31T07:44:31.472Z,5.00
2018-12-31T07:46:58.305Z,5.00
2018-12-31T07:49:25.235Z,5.10
2018-12-31T07:51:51.809Z,5.10
2018-12-31T07:54:18.736Z,5.10
2018-12-31T07:56:45.187Z,5.10
2018-12-31T07:59:11.897Z,5.10
2018-12-31T08:01:38.345Z,5.20
2018-12-31T08:04:05.077Z,5.20
2018-12-31T08:06:31.776Z,5.20
2018-12-31T08:08:58.485Z,5.20
2018-12-31T08:11:25.180Z,5.20
2018-12-31T08:13:51.904Z,5.20
2018-12-31T08:16:18.357Z,5.20
2018-12-31T08:18:44.845Z,5.20
2018-12-31T08:21:11.292Z,5.20
2018-12-31T08:23:37.995Z,5.20
2018-12-31T08:26:04.992Z,5.30
2018-12-31T08:28:31.696Z,5.30
2018-12-31T08:30:58.146Z,5.30
2018-12-31T08:33:24.852Z,5.30
2018-12-31T08:35:51.292Z,5.40
2018-12-31T08:38:18.023Z,5.50
2018-12-31T08:40:44.696Z,5.50
2018-12-31T08:43:11.404Z,5.50
2018-12-31T08:45:38.114Z,5.60
2018-12-31T08:48:04.660Z,5.50
2018-12-31T08:50:31.564Z,5.50
2018-12-31T08:52:58.296Z,5.50
2018-12-31T08:55:24.970Z,5.50
2018-12-31T08:57:51.695Z,5.50
2018-12-31T09:00:18.635Z,5.50
2018-12-31T09:02:45.116Z,5.50
2018-12-31T09:05:11.820Z,5.50
2018-12-31T09:07:38.304Z,5.60
2018-12-31T09:10:04.752Z,5.60
2018-12-31T09:12:31.960Z,5.60
2018-12-31T09:14:58.661Z,5.60
2018-12-31T09:17:25.347Z,5.70
2018-12-31T09:19:52.066Z,5.60
2018-12-31T09:22:18.600Z,5.60
2018-12-31T09:24:45.336Z,5.60
2018-12-31T09:27:12.272Z,5.60
2018-12-31T09:29:39.231Z,5.60
2018-12-31T09:32:05.936Z,5.60
2018-12-31T09:34:32.415Z,5.60
2018-12-31T09:36:59.116Z,5.70
2018-12-31T09:39:25.596Z,5.80
2018-12-31T09:41:53.431Z,5.80
2018-12-31T09:44:20.264Z,5.80
2018-12-31T09:46:47.617Z,5.80
2018-12-31T09:49:14.340Z,5.80
2018-12-31T09:51:40.792Z,5.80
2018-12-31T09:54:07.263Z,5.80
2018-12-31T09:56:33.955Z,5.80
2018-12-31T09:59:00.511Z,5.80
2018-12-31T10:01:27.060Z,5.80
2018-12-31T10:03:53.539Z,5.70
2018-12-31T10:06:20.220Z,5.70
2018-12-31T10:08:49.385Z,5.70
2018-12-31T10:11:15.628Z,5.70
2018-12-31T10:13:42.131Z,5.70
2018-12-31T10:16:08.836Z,5.70
2018-12-31T10:18:35.316Z,5.80
2018-12-31T10:21:01.808Z,5.80
2018-12-31T10:23:28.356Z,5.80
2018-12-31T10:25:54.840Z,5.80
2018-12-31T10:28:21.579Z,5.90
2018-12-31T10:30:48.052Z,6.00
2018-12-31T10:33:14.740Z,6.10
2018-12-31T10:35:41.518Z,6.00
2018-12-31T10:38:08.013Z,6.00
2018-12-31T10:40:34.499Z,5.90
2018-12-31T10:43:01.206Z,5.90
2018-12-31T10:45:27.771Z,6.00
2018-12-31T10:47:54.448Z,6.00
2018-12-31T10:50:21.168Z,6.00
2018-12-31T10:52:47.864Z,6.00
2018-12-31T10:55:14.354Z,5.90
2018-12-31T10:57:40.805Z,5.90
2018-12-31T11:00:07.981Z,5.90
2018-12-31T11:02:34.429Z,6.00
2018-12-31T11:05:01.135Z,6.00
2018-12-31T11:07:27.584Z,6.00
2018-12-31T11:09:54.076Z,6.00
2018-12-31T11:12:20.768Z,6.10
2018-12-31T11:14:47.506Z,6.10
2018-12-31T11:17:14.051Z,6.20
2018-12-31T11:19:40.527Z,6.20
2018-12-31T11:22:06.996Z,6.10
2018-12-31T11:24:33.700Z,6.10
2018-12-31T11:27:00.152Z,6.10
2018-12-31T11:29:26.880Z,6.10
2018-12-31T11:31:53.588Z,6.10
2018-12-31T11:34:20.272Z,6.10
2018-12-31T11:36:47.223Z,6.20
2018-12-31T11:39:13.680Z,6.20
2018-12-31T11:41:40.412Z,6.20
2018-12-31T11:44:07.091Z,6.30
2018-12-31T11:46:34.032Z,6.30
2018-12-31T11:49:00.483Z,6.30
2018-12-31T11:51:27.668Z,6.30
2018-12-31T11:53:56.112Z,6.30
2018-12-31T11:56:22.912Z,6.30
2018-12-31T11:58:49.360Z,6.30
2018-12-31T12:01:16.073Z,6.40
2018-12-31T12:03:43.010Z,6.40
2018-12-31T12:06:09.954Z,6.40
2018-12-31T12:08:36.882Z,6.50
2018-12-31T12:11:03.632Z,6.50
2018-12-31T12:13:30.089Z,6.50
2018-12-31T12:15:57.490Z,6.50
2018-12-31T12:18:24.005Z,6.50
2018-12-31T12:20:50.485Z,6.50
2018-12-31T12:23:17.035Z,6.50
2018-12-31T12:25:43.647Z,6.40
2018-12-31T12:28:10.232Z,6.40
2018-12-31T12:30:36.716Z,6.40
2018-12-31T12:33:03.172Z,6.40
2018-12-31T12:35:29.656Z,6.40
2018-12-31T12:37:56.449Z,6.40
2018-12-31T12:40:23.017Z,6.40
2018-12-31T12:42:50.008Z,6.40
2018-12-31T12:45:16.748Z,6.40
2018-12-31T12:47:43.191Z,6.40
2018-12-31T12:50:09.644Z,6.40
2018-12-31T12:52:36.125Z,6.30
2018-12-31T12:55:02.597Z,6.30
2018-12-31T12:57:29.833Z,6.30
2018-12-31T12:59:56.745Z,6.30
2018-12-31T13:02:23.705Z,6.30
2018-12-31T13:04:50.348Z,6.30
2018-12-31T13:07:16.823Z,6.30
2018-12-31T13:09:43.499Z,6.30
2018-12-31T13:12:10.907Z,6.30
2018-12-31T13:14:37.948Z,6.30
2018-12-31T13:17:04.523Z,6.30
2018-12-31T13:19:31.219Z,6.30
2018-12-31T13:21:57.944Z,6.30
2018-12-31T13:24:24.739Z,6.30
2018-12-31T13:26:51.443Z,6.30
2018-12-31T13:29:18.222Z,6.30
2018-12-31T13:31:45.144Z,6.30
2018-12-31T13:34:11.836Z,6.30
2018-12-31T13:36:38.386Z,6.30
2018-12-31T13:39:05.064Z,6.30
2018-12-31T13:41:31.670Z,6.30
2018-12-31T13:43:58.178Z,6.30
2018-12-31T13:46:24.670Z,6.30
2018-12-31T13:48:51.224Z,6.30
2018-12-31T13:51:17.731Z,6.30
2018-12-31T13:53:44.488Z,6.30
2018-12-31T13:56:11.296Z,6.30
2018-12-31T13:58:38.009Z,6.30
2018-12-31T14:01:04.812Z,6.30
2018-12-31T14:03:31.417Z,6.30
2018-12-31T14:05:58.240Z,6.30
2018-12-31T14:08:24.724Z,6.30
2018-12-31T14:10:51.177Z,6.40
2018-12-31T14:13:17.736Z,6.40
2018-12-31T14:15:44.652Z,6.40
2018-12-31T14:18:11.372Z,6.40
2018-12-31T14:20:37.915Z,6.40
2018-12-31T14:23:04.877Z,6.40
2018-12-31T14:25:31.332Z,6.40
2018-12-31T14:27:57.810Z,6.40
2018-12-31T14:30:24.272Z,6.40
2018-12-31T14:32:50.996Z,6.40
2018-12-31T14:35:17.868Z,6.40
2018-12-31T14:37:45.052Z,6.40
2018-12-31T14:40:11.752Z,6.40
2018-12-31T14:42:38.231Z,6.40
2018-12-31T14:45:04.723Z,6.40
2018-12-31T14:47:31.679Z,6.40
2018-12-31T14:49:58.222Z,6.40
2018-12-31T14:52:24.996Z,6.40
2018-12-31T14:54:51.926Z,6.40
2018-12-31T14:57:18.759Z,6.40
2018-12-31T14:59:45.205Z,6.40
2018-12-31T15:02:11.686Z,6.40
2018-12-31T15:04:38.233Z,6.40
2018-12-31T15:07:04.720Z,6.40
2018-12-31T15:09:31.653Z,6.30
2018-12-31T15:11:58.199Z,6.30
2018-12-31T15:14:25.004Z,6.30
2018-12-31T15:16:51.691Z,6.40
2018-12-31T15:19:18.166Z,6.30
2018-12-31T15:21:44.616Z,6.40
2018-12-31T15:24:11.193Z,6.40
2018-12-31T15:26:37.875Z,6.40
2018-12-31T15:29:04.489Z,6.40
2018-12-31T15:31:30.935Z,6.40
2018-12-31T15:33:57.688Z,6.40
2018-12-31T15:36:24.194Z,6.40
2018-12-31T15:38:50.780Z,6.40
2018-12-31T15:41:17.460Z,6.40
2018-12-31T15:43:44.196Z,6.40
2018-12-31T15:46:11.348Z,6.40
2018-12-31T15:48:37.934Z,6.40
2018-12-31T15:51:04.485Z,6.40
2018-12-31T15:53:31.595Z,6.40
2018-12-31T15:55:58.735Z,6.40
2018-12-31T15:58:25.596Z,6.40
2018-12-31T16:00:52.045Z,6.40
2018-12-31T16:03:18.753Z,6.40
2018-12-31T16:05:45.778Z,6.40
2018-12-31T16:08:13.236Z,6.40
2018-12-31T16:10:39.917Z,6.40
2018-12-31T16:13:06.620Z,6.40
2018-12-31T16:15:33.297Z,6.40
2018-12-31T16:18:00.004Z,6.40
2018-12-31T16:20:26.484Z,6.40
2018-12-31T16:22:53.484Z,6.40
2018-12-31T16:25:19.939Z,6.30
2018-12-31T16:27:46.532Z,6.30
2018-12-31T16:30:13.296Z,6.30
2018-12-31T16:32:40.417Z,6.30
2018-12-31T16:35:07.431Z,6.30
2018-12-31T16:37:34.693Z,6.30
2018-12-31T16:40:01.780Z,6.30
2018-12-31T16:42:28.224Z,6.30
2018-12-31T16:44:54.932Z,6.30
2018-12-31T16:47:21.387Z,6.30
2018-12-31T16:49:47.863Z,6.30
2018-12-31T16:52:14.860Z,6.30
2018-12-31T16:54:41.593Z,6.30
2018-12-31T16:57:08.044Z,6.30
2018-12-31T16:59:35.096Z,6.30
2018-12-31T17:02:01.547Z,6.30
2018-12-31T17:04:28.028Z,6.30
2018-12-31T17:06:55.356Z,6.30
2018-12-31T17:09:22.307Z,6.20
2018-12-31T17:11:49.108Z,6.20
2018-12-31T17:14:15.588Z,6.20
2018-12-31T17:16:42.267Z,6.20
2018-12-31T17:19:09.437Z,6.10
2018-12-31T17:21:35.885Z,6.10
2018-12-31T17:24:02.638Z,6.10
2018-12-31T17:26:29.411Z,6.00
2018-12-31T17:28:56.164Z,6.00
2018-12-31T17:31:22.614Z,6.00
2018-12-31T17:33:49.796Z,5.90
2018-12-31T17:36:16.528Z,5.90
2018-12-31T17:38:43.032Z,6.00
2018-12-31T17:41:09.481Z,5.90
2018-12-31T17:43:36.331Z,6.00
2018-12-31T17:46:02.933Z,6.00
2018-12-31T17:48:29.733Z,6.00
2018-12-31T17:50:56.436Z,6.00
2018-12-31T17:53:23.248Z,6.00
2018-12-31T17:55:49.989Z,6.10
2018-12-31T17:58:16.538Z,6.10
2018-12-31T18:00:43.116Z,6.10
2018-12-31T18:03:09.565Z,6.10
2018-12-31T18:05:36.044Z,6.00
2018-12-31T18:08:02.899Z,6.00
2018-12-31T18:10:29.375Z,6.00
2018-12-31T18:12:55.820Z,6.00
2018-12-31T18:15:22.536Z,6.00
2018-12-31T18:17:49.212Z,6.00
2018-12-31T18:20:16.152Z,6.00
2018-12-31T18:22:43.033Z,6.00
2018-12-31T18:25:09.764Z,6.00
2018-12-31T18:27:36.444Z,6.00
2018-12-31T18:30:03.159Z,6.00
2018-12-31T18:32:29.831Z,6.00
2018-12-31T18:34:56.308Z,6.00
2018-12-31T18:37:23.395Z,6.00
2018-12-31T18:39:49.869Z,6.00
2018-12-31T18:42:18.589Z,6.00
2018-12-31T18:44:45.731Z,6.00
2018-12-31T18:47:12.849Z,6.00
2018-12-31T18:49:39.579Z,6.10
2018-12-31T18:52:06.755Z,6.10
2018-12-31T18:54:33.280Z,6.10
2018-12-31T18:57:00.208Z,6.10
2018-12-31T18:59:27.003Z,6.10
2018-12-31T19:01:53.702Z,6.10
2018-12-31T19:04:20.661Z,6.10
2018-12-31T19:06:47.661Z,6.10
2018-12-31T19:09:14.571Z,6.10
2018-12-31T19:11:41.054Z,6.10
2018-12-31T19:14:07.851Z,6.10
2018-12-31T19:16:34.359Z,6.10
2018-12-31T19:19:00.812Z,6.10
2018-12-31T19:21:27.772Z,6.10
2018-12-31T19:23:54.447Z,6.10
2018-12-31T19:26:21.154Z,6.10
2018-12-31T19:28:47.604Z,6.10
2018-12-31T19:31:14.085Z,6.10
2018-12-31T19:33:40.911Z,6.10
2018-12-31T19:36:07.713Z,6.10
2018-12-31T19:38:34.844Z,6.10
2018-12-31T19:41:01.388Z,6.10
2018-12-31T19:43:28.087Z,6.10
2018-12-31T19:45:54.792Z,6.10
2018-12-31T19:48:21.344Z,6.10
2018-12-31T19:50:47.819Z,6.10
2018-12-31T19:53:14.795Z,6.20
2018-12-31T19:55:41.504Z,6.20
2018-12-31T19:58:08.283Z,6.20
2018-12-31T20:00:35.022Z,6.20
2018-12-31T20:03:01.558Z,6.20
2018-12-31T20:05:28.024Z,6.20
2018-12-31T20:07:55.464Z,6.20
2018-12-31T20:10:23.586Z,6.20
2018-12-31T20:12:50.657Z,6.30
2018-12-31T20:15:17.152Z,6.30
2018-12-31T20:17:43.611Z,6.30
2018-12-31T20:20:10.392Z,6.30
2018-12-31T20:22:37.337Z,6.30
2018-12-31T20:25:04.244Z,6.30
2018-12-31T20:27:30.699Z,6.30
2018-12-31T20:29:57.491Z,6.20
2018-12-31T20:32:24.281Z,6.20
2018-12-31T20:34:51.315Z,6.30
2018-12-31T20:37:18.005Z,6.30
2018-12-31T20:39:45.008Z,6.30
2018-12-31T20:42:11.455Z,6.30
2018-12-31T20:44:38.252Z,6.30
2018-12-31T20:47:05.029Z,6.30
2018-12-31T20:49:31.829Z,6.30
2018-12-31T20:51:58.363Z,6.30
2018-12-31T20:54:25.160Z,6.30
2018-12-31T20:56:52.052Z,6.30
2018-12-31T20:59:18.544Z,6.30
2018-12-31T21:01:45.449Z,6.30
2018-12-31T21:04:12.335Z,6.30
2018-12-31T21:06:39.261Z,6.30
2018-12-31T21:09:06.320Z,6.30
2018-12-31T21:11:33.008Z,6.30
2018-12-31T21:13:59.691Z,6.40
2018-12-31T21:16:26.136Z,6.40
2018-12-31T21:18:52.599Z,6.40
2018-12-31T21:21:19.623Z,6.40
2018-12-31T21:23:46.308Z,6.40
2018-12-31T21:26:12.993Z,6.50
2018-12-31T21:28:39.715Z,6.50
2018-12-31T21:31:06.395Z,6.50
2018-12-31T21:33:33.175Z,6.50
2018-12-31T21:35:59.968Z,6.50
2018-12-31T21:38:26.648Z,6.50
2018-12-31T21:40:53.567Z,6.50
2018-12-31T21:43:22.559Z,6.50
2018-12-31T21:45:49.120Z,6.40
2018-12-31T21:48:15.791Z,6.50
2018-12-31T21:50:42.968Z,6.40
2018-12-31T21:53:09.904Z,6.50
2018-12-31T21:55:36.611Z,6.50
2018-12-31T21:58:03.360Z,6.50
2018-12-31T22:00:29.828Z,6.50
2018-12-31T22:02:57.197Z,6.50
2018-12-31T22:05:24.088Z,6.40
2018-12-31T22:07:51.028Z,6.40
2018-12-31T22:10:17.475Z,6.40
2018-12-31T22:12:43.925Z,6.40
2018-12-31T22:15:10.388Z,6.40
2018-12-31T22:17:37.169Z,6.40
2018-12-31T22:20:04.036Z,6.40
2018-12-31T22:22:30.496Z,6.40
2018-12-31T22:24:57.208Z,6.30
2018-12-31T22:27:23.994Z,6.40
2018-12-31T22:29:51.000Z,6.30
2018-12-31T22:32:18.116Z,6.30
2018-12-31T22:34:44.584Z,6.30
2018-12-31T22:37:11.036Z,6.30
2018-12-31T22:39:37.495Z,6.40
2018-12-31T22:42:04.522Z,6.40
2018-12-31T22:44:31.865Z,6.30
2018-12-31T22:46:58.662Z,6.40
2018-12-31T22:49:25.469Z,6.40
2018-12-31T22:51:52.019Z,6.40
2018-12-31T22:54:18.495Z,6.50
2018-12-31T22:56:44.939Z,6.50
2018-12-31T22:59:12.258Z,6.50
2018-12-31T23:01:38.803Z,6.60
2018-12-31T23:04:05.252Z,6.60
2018-12-31T23:06:32.278Z,6.60
2018-12-31T23:08:59.164Z,6.50
2018-12-31T23:11:25.627Z,6.50
2018-12-31T23:13:52.482Z,6.60
2018-12-31T23:16:20.552Z,6.50
2018-12-31T23:18:47.344Z,6.50
2018-12-31T23:21:13.804Z,6.50
2018-12-31T23:23:40.575Z,6.50
2018-12-31T23:26:07.053Z,6.50
2018-12-31T23:28:33.887Z,6.50
2018-12-31T23:31:01.554Z,6.40
2018-12-31T23:33:28.628Z,6.40
2018-12-31T23:35:55.084Z,6.40
2018-12-31T23:38:21.813Z,6.40
2018-12-31T23:40:48.719Z,6.40
2018-12-31T23:43:15.515Z,6.40
2018-12-31T23:45:42.224Z,6.40
2018-12-31T23:48:09.245Z,6.40
2018-12-31T23:50:36.015Z,6.40
2018-12-31T23:53:02.747Z,6.40
2018-12-31T23:55:29.529Z,6.40
2018-12-31T23:57:56.232Z,6.40
